Terminal Aerodrome Forecast
Issued by NWS Charleston, WV

Current Version | Previous Version | Graphics & Text | Print | Product List | Glossary On
Versions: 1 2 3 4 5 6 7 8 9 10 11 12 13 14 15 16 17 18 19 20 21 22 23 24
000
FTUS41 KRLX 211500 AAC
TAFHTS
TAF AMD
KHTS 211502Z 2115/2212 28007KT P6SM OVC015
     FM211800 30006KT P6SM BKN025
     FM220500 32006KT P6SM OVC025
     FM221000 31005KT P6SM OVC020=

USA.gov is the U.S. government's official web portal to all federal, state and local government web resources and services.